createdAt,value
2017-12-20T00:04:37.957Z,100949.06
2017-12-20T00:10:41.424Z,100945.73
2017-12-20T00:16:44.925Z,100949.88
2017-12-20T00:22:48.495Z,100942.40
2017-12-20T00:28:52.622Z,100942.47
2017-12-20T00:34:56.342Z,100923.31
2017-12-20T00:40:59.799Z,100925.10
2017-12-20T00:47:03.393Z,100934.43
2017-12-20T00:53:06.918Z,100931.41
2017-12-20T00:59:11.279Z,100935.88
2017-12-20T01:05:14.761Z,100959.73
2017-12-20T01:11:18.993Z,100952.56
2017-12-20T01:17:22.502Z,100956.29
2017-12-20T01:23:26.056Z,100956.84
2017-12-20T01:29:30.299Z,100973.56
2017-12-20T01:35:33.804Z,100968.02
2017-12-20T01:41:37.276Z,100972.84
2017-12-20T01:47:40.870Z,100973.02
2017-12-20T01:53:45.174Z,100973.98
2017-12-20T01:59:48.684Z,100976.83
2017-12-20T02:05:52.431Z,100973.56
2017-12-20T02:11:55.970Z,100959.86
2017-12-20T02:17:59.484Z,100954.38
2017-12-20T02:24:03.766Z,100950.14
2017-12-20T02:30:07.236Z,100953.83
2017-12-20T02:36:11.654Z,100947.97
2017-12-20T02:42:16.187Z,100938.06
2017-12-20T02:48:19.690Z,100942.05
2017-12-20T02:54:23.526Z,100944.77
2017-12-20T03:00:27.869Z,100942.95
2017-12-20T03:06:31.458Z,100947.91
2017-12-20T03:12:35.221Z,100943.25
2017-12-20T03:18:38.835Z,100938.38
2017-12-20T03:24:42.480Z,100933.00
2017-12-20T03:30:46.964Z,100935.73
2017-12-20T03:36:50.601Z,100935.53
2017-12-20T03:42:54.421Z,100940.10
2017-12-20T03:48:57.912Z,100935.77
2017-12-20T03:55:01.456Z,100940.91
2017-12-20T04:01:04.988Z,100937.99
2017-12-20T04:07:08.865Z,100953.35
2017-12-20T04:13:12.478Z,100951.34
2017-12-20T04:19:16.419Z,100951.70
2017-12-20T04:25:20.649Z,100940.53
2017-12-20T04:31:24.313Z,100931.72
2017-12-20T04:37:27.825Z,100936.73
2017-12-20T04:43:31.498Z,100942.60
2017-12-20T04:49:35.486Z,100945.55
2017-12-20T04:55:39.000Z,100947.30
2017-12-20T05:01:42.508Z,100950.44
2017-12-20T05:07:46.076Z,100951.16
2017-12-20T05:13:49.785Z,100952.91
2017-12-20T05:19:53.471Z,100938.59
2017-12-20T05:25:57.111Z,100942.99
2017-12-20T05:32:00.637Z,100948.91
2017-12-20T05:38:04.154Z,100960.02
2017-12-20T05:44:07.659Z,100966.73
2017-12-20T05:50:11.264Z,100965.41
2017-12-20T05:56:14.904Z,100970.94
2017-12-20T06:02:18.490Z,100979.81
2017-12-20T06:08:22.034Z,100982.95
2017-12-20T06:14:25.594Z,100980.17
2017-12-20T06:20:29.201Z,100986.71
2017-12-20T06:26:32.726Z,100994.06
2017-12-20T06:32:36.294Z,100990.86
2017-12-20T06:38:39.799Z,100995.23
2017-12-20T06:44:43.275Z,100998.27
2017-12-20T06:50:47.650Z,101004.42
2017-12-20T06:56:52.208Z,101018.68
2017-12-20T07:02:56.580Z,101022.36
2017-12-20T07:09:00.057Z,101027.19
2017-12-20T07:15:04.317Z,101026.02
2017-12-20T07:21:07.807Z,101020.77
2017-12-20T07:27:11.373Z,101027.20
2017-12-20T07:33:14.834Z,101025.59
2017-12-20T07:39:18.327Z,101025.86
2017-12-20T07:45:21.806Z,101023.98
2017-12-20T07:51:26.076Z,101033.90
2017-12-20T07:57:30.361Z,101035.42
2017-12-20T08:03:33.844Z,101052.83
2017-12-20T08:09:37.449Z,101055.84
2017-12-20T08:15:41.097Z,101060.80
2017-12-20T08:21:44.599Z,101061.22
2017-12-20T08:27:48.091Z,101070.10
2017-12-20T08:33:51.740Z,101073.92
2017-12-20T08:39:55.256Z,101083.32
2017-12-20T08:45:58.751Z,101083.44
2017-12-20T08:52:02.226Z,101092.94
2017-12-20T08:58:05.718Z,101094.27
2017-12-20T09:04:09.292Z,101095.23
2017-12-20T09:10:12.816Z,101109.02
2017-12-20T09:16:16.580Z,101103.64
2017-12-20T09:22:20.140Z,101099.16
2017-12-20T09:28:23.830Z,101105.32
2017-12-20T09:34:27.352Z,101107.10
2017-12-20T09:40:30.978Z,101091.77
2017-12-20T09:46:34.500Z,101098.63
2017-12-20T09:52:38.036Z,101097.50
2017-12-20T09:58:41.619Z,101090.37
2017-12-20T10:04:45.130Z,101088.84
2017-12-20T10:10:48.644Z,101084.45
2017-12-20T10:16:53.502Z,101087.59
2017-12-20T10:22:56.982Z,101081.17
2017-12-20T10:29:00.490Z,101080.03
2017-12-20T10:35:04.086Z,101060.70
2017-12-20T10:41:07.551Z,101059.05
2017-12-20T10:47:11.034Z,101051.72
2017-12-20T10:53:14.547Z,101052.27
2017-12-20T10:59:18.044Z,101044.53
2017-12-20T11:05:21.625Z,101050.83
2017-12-20T11:11:25.249Z,101051.34
2017-12-20T11:17:29.582Z,101066.61
2017-12-20T11:23:33.035Z,101063.74
2017-12-20T11:29:36.575Z,101054.13
2017-12-20T11:35:40.175Z,101040.64
2017-12-20T11:41:43.844Z,101042.14
2017-12-20T11:47:47.394Z,101038.64
2017-12-20T11:53:51.474Z,101035.14
2017-12-20T11:59:55.312Z,101036.67
2017-12-20T12:05:58.916Z,101036.66
2017-12-20T12:12:02.570Z,101030.84
2017-12-20T12:18:06.042Z,101037.04
2017-12-20T12:24:09.515Z,101047.52
2017-12-20T12:30:13.019Z,101042.98
2017-12-20T12:36:16.751Z,101037.47
2017-12-20T12:42:21.000Z,101042.12
2017-12-20T12:48:24.612Z,101036.84
2017-12-20T12:54:28.097Z,101027.91
2017-12-20T13:00:31.585Z,101024.33
2017-12-20T13:06:35.900Z,101028.61
2017-12-20T13:12:39.386Z,101025.66
2017-12-20T13:18:42.975Z,101032.32
2017-12-20T13:24:46.617Z,101024.84
2017-12-20T13:30:50.115Z,101030.63
2017-12-20T13:36:53.735Z,101033.11
2017-12-20T13:42:57.984Z,101021.91
2017-12-20T13:49:01.489Z,101044.20
2017-12-20T13:55:05.007Z,101046.44
2017-12-20T14:01:08.496Z,101046.73
2017-12-20T14:07:12.030Z,101044.11
2017-12-20T14:13:16.277Z,101042.98
2017-12-20T14:19:19.755Z,101041.54
2017-12-20T14:25:24.246Z,101042.92
2017-12-20T14:31:27.737Z,101037.59
2017-12-20T14:37:31.242Z,101049.81
2017-12-20T14:43:35.480Z,101056.31
2017-12-20T14:49:38.968Z,101050.03
2017-12-20T14:55:43.240Z,101050.03
2017-12-20T15:01:47.488Z,101049.17
2017-12-20T15:07:51.303Z,101063.22
2017-12-20T15:13:54.816Z,101059.04
2017-12-20T15:19:59.081Z,101066.48
2017-12-20T15:26:02.586Z,101075.92
2017-12-20T15:32:06.379Z,101068.24
2017-12-20T15:38:10.155Z,101071.45
2017-12-20T15:44:13.758Z,101071.33
2017-12-20T15:50:17.356Z,101072.37
2017-12-20T15:56:21.107Z,101064.25
2017-12-20T16:02:24.610Z,101058.52
2017-12-20T16:08:28.084Z,101035.77
2017-12-20T16:14:31.571Z,101051.02
2017-12-20T16:20:35.087Z,101053.26
2017-12-20T16:26:38.615Z,101058.02
2017-12-20T16:32:42.188Z,101065.34
2017-12-20T16:38:45.745Z,101056.83
2017-12-20T16:44:49.235Z,101056.69
2017-12-20T16:50:53.766Z,101070.23
2017-12-20T16:56:57.330Z,101077.56
2017-12-20T17:03:00.816Z,101061.19
2017-12-20T17:09:04.280Z,101058.45
2017-12-20T17:15:07.826Z,101054.89
2017-12-20T17:21:11.334Z,101074.28
2017-12-20T17:27:15.569Z,101087.72
2017-12-20T17:33:19.105Z,101078.27
2017-12-20T17:39:22.707Z,101086.48
2017-12-20T17:45:26.947Z,101093.52
2017-12-20T17:51:30.732Z,101095.50
2017-12-20T17:57:34.208Z,101096.61
2017-12-20T18:03:38.581Z,101091.03
2017-12-20T18:09:42.845Z,101076.63
2017-12-20T18:15:46.363Z,101087.17
2017-12-20T18:21:49.900Z,101081.50
2017-12-20T18:27:53.473Z,101086.12
2017-12-20T18:33:57.020Z,101077.37
2017-12-20T18:40:00.521Z,101072.58
2017-12-20T18:46:04.770Z,101088.17
2017-12-20T18:52:08.302Z,101087.81
2017-12-20T18:58:11.969Z,101069.50
2017-12-20T19:04:16.452Z,101058.50
2017-12-20T19:10:19.974Z,101066.19
2017-12-20T19:16:23.884Z,101069.56
2017-12-20T19:22:27.418Z,101053.30
2017-12-20T19:28:31.019Z,101058.48
2017-12-20T19:34:34.655Z,101058.42
2017-12-20T19:40:38.190Z,101049.91
2017-12-20T19:46:41.704Z,101060.25
2017-12-20T19:52:45.324Z,101060.17
2017-12-20T19:58:49.867Z,101065.98
2017-12-20T20:04:53.615Z,101074.37
2017-12-20T20:10:57.953Z,101072.91
2017-12-20T20:17:02.609Z,101067.78
2017-12-20T20:23:06.094Z,101056.19
2017-12-20T20:29:09.571Z,101050.45
2017-12-20T20:35:13.051Z,101048.06
2017-12-20T20:41:16.757Z,101050.98
2017-12-20T20:47:21.152Z,101051.16
2017-12-20T20:53:25.225Z,101053.52
2017-12-20T20:59:28.767Z,101053.65
2017-12-20T21:05:32.321Z,101052.91
2017-12-20T21:11:36.110Z,101051.77
2017-12-20T21:17:39.586Z,101048.33
2017-12-20T21:23:43.095Z,101054.76
2017-12-20T21:29:46.626Z,101059.55
2017-12-20T21:35:50.973Z,101054.88
2017-12-20T21:41:54.528Z,101073.75
2017-12-20T21:47:58.768Z,101080.63
2017-12-20T21:54:02.258Z,101078.88
2017-12-20T22:00:05.760Z,101064.99
2017-12-20T22:06:09.310Z,101070.60
2017-12-20T22:12:12.833Z,101064.37
2017-12-20T22:18:17.112Z,101031.88
2017-12-20T22:24:21.431Z,101029.10
2017-12-20T22:30:26.904Z,101027.66
2017-12-20T22:36:30.425Z,101052.62
2017-12-20T22:42:33.926Z,101061.69
2017-12-20T22:48:37.411Z,101068.03
2017-12-20T22:54:40.943Z,101051.71
2017-12-20T23:00:44.415Z,101042.95
2017-12-20T23:06:47.909Z,101044.52
2017-12-20T23:12:51.529Z,101049.66
2017-12-20T23:18:55.018Z,101053.97
2017-12-20T23:24:59.283Z,101058.11
2017-12-20T23:31:02.995Z,101057.14
2017-12-20T23:37:06.716Z,101040.37
2017-12-20T23:43:10.342Z,101060.38
2017-12-20T23:49:13.836Z,101054.01
2017-12-20T23:55:17.324Z,101073.89
